Time;durP1;ratioP1;P1;durP2;ratioP2;P2;SDS_P1;SDS_P2;PMS_P1;PMS_P2;Temp;Humidity;BMP_temperature;BMP_pressure;BME280_temperature;BME280_humidity;BME280_pressure;Samples;Min_cycle;Max_cycle;Signal;HPM_P1;HPM_P2
2022/04/22 00:00:07;;;;;;;5.00;4.07;;;6.80;99.90;;;;;;4974758;28;20187;-71
2022/04/22 00:02:32;;;;;;;5.00;4.50;;;6.80;99.90;;;;;;4973525;28;20469;-71
2022/04/22 00:04:58;;;;;;;5.43;4.60;;;6.80;99.90;;;;;;4974246;28;20432;-73
2022/04/22 00:07:23;;;;;;;6.00;4.60;;;6.70;99.90;;;;;;4974125;28;20486;-71
2022/04/22 00:09:49;;;;;;;7.27;5.20;;;6.60;99.90;;;;;;4974008;28;20189;-71
2022/04/22 00:12:14;;;;;;;5.10;4.60;;;6.60;99.90;;;;;;4972717;28;20209;-71
2022/04/22 00:14:40;;;;;;;5.37;4.87;;;6.60;99.90;;;;;;4974140;28;20248;-72
2022/04/22 00:17:06;;;;;;;5.73;5.20;;;6.60;99.90;;;;;;4974044;28;20650;-70
2022/04/22 00:19:32;;;;;;;5.40;4.70;;;6.60;99.90;;;;;;4973931;28;20177;-70
2022/04/22 00:21:57;;;;;;;7.40;5.93;;;6.50;99.90;;;;;;4972993;28;20282;-71
2022/04/22 00:24:23;;;;;;;5.87;5.30;;;6.50;99.90;;;;;;4973269;28;20559;-75
2022/04/22 00:26:48;;;;;;;5.67;4.70;;;6.50;99.90;;;;;;4973884;28;20190;-71
2022/04/22 00:29:14;;;;;;;5.80;5.00;;;6.40;99.90;;;;;;4974209;28;20188;-71
2022/04/22 00:31:39;;;;;;;6.13;5.17;;;6.40;99.90;;;;;;4972995;28;20220;-73
2022/04/22 00:34:05;;;;;;;5.20;4.70;;;6.40;99.90;;;;;;4973339;28;20716;-71
2022/04/22 00:36:31;;;;;;;6.23;5.00;;;6.30;99.90;;;;;;4973734;28;20263;-71
2022/04/22 00:38:57;;;;;;;6.20;5.60;;;6.30;99.90;;;;;;4974092;28;20177;-70
2022/04/22 00:41:22;;;;;;;9.37;5.60;;;6.20;99.90;;;;;;4973056;28;20246;-72
2022/04/22 00:43:50;;;;;;;6.80;5.30;;;6.10;99.90;;;;;;4973508;28;20244;-70
2022/04/22 00:46:19;;;;;;;5.70;5.20;;;6.10;99.90;;;;;;4973450;28;20193;-71
2022/04/22 00:48:45;;;;;;;5.77;5.10;;;6.00;99.90;;;;;;4972738;28;20420;-70
2022/04/22 00:51:11;;;;;;;8.23;5.30;;;6.00;99.90;;;;;;4972349;28;20435;-71
2022/04/22 00:53:37;;;;;;;8.13;5.63;;;5.90;99.90;;;;;;4972632;28;20944;-70
2022/04/22 00:56:04;;;;;;;6.63;6.00;;;5.90;99.90;;;;;;4972690;28;20422;-70
2022/04/22 00:58:31;;;;;;;5.97;4.53;;;5.90;99.90;;;;;;4972819;28;20502;-71
2022/04/22 02:31:06;;;;;;;11.00;7.13;;;4.70;99.90;;;;;;5905087;23;20284;-71
2022/04/22 02:33:33;;;;;;;11.03;7.57;;;4.70;99.90;;;;;;4981839;28;20477;-73
2022/04/22 02:35:59;;;;;;;10.43;6.63;;;4.70;99.90;;;;;;4991360;28;20416;-72
2022/04/22 02:38:26;;;;;;;10.93;8.00;;;4.60;99.90;;;;;;4982974;28;20940;-72
2022/04/22 02:46:20;;;;;;;10.13;8.70;;;4.60;99.90;;;;;;4972507;28;20471;-72
2022/04/22 02:48:45;;;;;;;9.93;7.60;;;4.50;99.90;;;;;;4972374;28;20420;-70
2022/04/22 02:51:11;;;;;;;11.47;8.20;;;4.60;99.90;;;;;;4974396;28;20248;-72
2022/04/22 02:53:36;;;;;;;13.73;8.60;;;4.50;99.90;;;;;;4976282;28;20211;-71
2022/04/22 02:56:04;;;;;;;10.30;7.63;;;4.50;99.90;;;;;;4976102;28;20578;-73
2022/04/22 02:58:30;;;;;;;11.63;8.40;;;4.40;99.90;;;;;;4976319;28;20515;-73
2022/04/22 03:00:56;;;;;;;11.70;8.77;;;4.40;99.90;;;;;;4975912;28;20404;-72
2022/04/22 03:03:22;;;;;;;12.03;8.90;;;4.40;99.90;;;;;;4976274;28;20179;-72
2022/04/22 03:05:48;;;;;;;10.70;7.70;;;4.40;99.90;;;;;;4976305;28;20391;-72
2022/04/22 03:08:14;;;;;;;10.73;7.90;;;4.40;99.90;;;;;;4976025;28;20846;-72
2022/04/22 03:10:39;;;;;;;13.47;9.33;;;4.40;99.90;;;;;;4976274;28;20699;-73
2022/04/22 03:13:06;;;;;;;10.27;8.93;;;4.30;99.90;;;;;;4976848;28;20185;-73
2022/04/22 03:15:33;;;;;;;11.90;8.83;;;4.30;99.90;;;;;;4976430;28;20538;-73
2022/04/22 03:17:59;;;;;;;12.70;10.00;;;4.30;99.90;;;;;;4975830;28;20414;-72
2022/04/22 03:20:25;;;;;;;14.10;10.57;;;4.30;99.90;;;;;;4975862;28;20423;-72
2022/04/22 03:22:51;;;;;;;13.33;8.83;;;4.30;99.90;;;;;;4975645;28;20436;-73
2022/04/22 03:25:19;;;;;;;13.57;9.83;;;4.30;99.90;;;;;;4975605;28;20188;-73
2022/04/22 03:27:44;;;;;;;12.17;9.10;;;4.20;99.90;;;;;;4975802;28;20413;-72
2022/04/22 03:30:10;;;;;;;14.70;10.50;;;4.20;99.90;;;;;;4975588;28;20428;-70
2022/04/22 03:32:36;;;;;;;12.47;9.57;;;4.20;99.90;;;;;;4977938;28;20689;-71
2022/04/22 03:35:02;;;;;;;13.40;8.67;;;4.20;99.90;;;;;;4978662;28;20465;-73
2022/04/22 03:37:28;;;;;;;13.10;9.10;;;4.10;99.90;;;;;;4977780;28;20174;-72
2022/04/22 03:39:53;;;;;;;13.57;10.70;;;4.10;99.90;;;;;;4975662;28;20169;-72
2022/04/22 03:42:19;;;;;;;17.03;12.27;;;4.10;99.90;;;;;;4974972;28;20418;-71
2022/04/22 03:44:44;;;;;;;17.87;11.40;;;4.10;99.90;;;;;;4974100;28;20904;-71
2022/04/22 03:47:10;;;;;;;13.97;9.67;;;4.00;99.90;;;;;;4975203;28;20184;-72
2022/04/22 03:49:35;;;;;;;15.80;10.53;;;4.00;99.90;;;;;;4975102;28;20288;-72
2022/04/22 03:52:01;;;;;;;16.20;10.67;;;4.00;99.90;;;;;;4975110;28;20204;-73
2022/04/22 03:54:26;;;;;;;20.73;12.10;;;4.00;99.90;;;;;;4975096;28;20597;-70
2022/04/22 03:59:36;;;;;;;17.93;12.07;;;4.00;99.90;;;;;;4975256;28;20669;-72
2022/04/22 04:02:03;;;;;;;16.07;11.70;;;4.00;99.90;;;;;;4974240;28;20515;-72
2022/04/22 04:04:29;;;;;;;18.57;12.03;;;4.00;99.90;;;;;;4975205;28;20266;-73
2022/04/22 04:06:54;;;;;;;17.87;11.97;;;4.00;99.90;;;;;;4974980;28;20900;-72
2022/04/22 04:17:36;;;;;;;20.30;12.70;;;4.10;99.90;;;;;;4974806;28;20475;-72
2022/04/22 04:25:31;;;;;;;20.40;12.60;;;4.00;99.90;;;;;;4974800;28;20796;-72
2022/04/22 04:27:57;;;;;;;19.43;12.60;;;4.00;99.90;;;;;;4974411;28;20413;-72
2022/04/22 04:30:23;;;;;;;21.37;12.00;;;4.00;99.90;;;;;;4974409;28;20192;-70
2022/04/22 04:32:49;;;;;;;25.70;12.47;;;4.10;99.90;;;;;;4974021;28;20462;-72
2022/04/22 04:35:15;;;;;;;25.43;14.47;;;4.10;99.90;;;;;;4974206;28;20963;-72
2022/04/22 04:37:41;;;;;;;22.63;14.20;;;4.10;99.90;;;;;;4974310;28;20180;-71
2022/04/22 04:40:10;;;;;;;15.40;11.90;;;4.10;99.90;;;;;;4974205;28;20631;-72
2022/04/22 04:42:35;;;;;;;23.00;13.70;;;4.10;99.90;;;;;;4973919;28;20433;-72
2022/04/22 04:45:01;;;;;;;22.67;13.00;;;4.20;99.90;;;;;;4974241;28;20513;-71
2022/04/22 04:47:26;;;;;;;21.10;14.10;;;4.20;99.90;;;;;;4974106;28;20189;-72
2022/04/22 04:49:52;;;;;;;20.03;14.23;;;4.30;99.90;;;;;;4974236;28;20228;-72
2022/04/22 04:52:18;;;;;;;22.17;12.67;;;4.30;99.90;;;;;;4973608;28;20516;-72
2022/04/22 04:54:46;;;;;;;16.57;11.97;;;4.30;99.90;;;;;;4974019;28;20716;-72
2022/04/22 04:57:11;;;;;;;18.83;12.23;;;4.30;99.90;;;;;;4973968;28;20572;-72
2022/04/22 04:59:37;;;;;;;18.53;11.60;;;4.40;99.90;;;;;;4973737;28;20428;-72
2022/04/22 05:02:02;;;;;;;20.70;11.80;;;4.40;99.90;;;;;;4973547;28;20195;-72
2022/04/22 05:04:28;;;;;;;17.27;12.03;;;4.50;99.90;;;;;;4973741;28;20188;-71
2022/04/22 05:06:53;;;;;;;22.00;13.40;;;4.60;99.90;;;;;;4973880;28;20657;-72
2022/04/22 05:09:19;;;;;;;22.43;13.50;;;4.70;99.90;;;;;;4973545;28;20185;-73
2022/04/22 05:11:45;;;;;;;23.40;14.07;;;4.80;99.90;;;;;;4962326;28;20614;-72
2022/04/22 05:14:11;;;;;;;18.27;14.10;;;4.90;99.90;;;;;;4967736;28;20212;-72
2022/04/22 05:16:36;;;;;;;17.50;11.90;;;5.00;99.90;;;;;;4993039;28;20811;-71
2022/04/22 05:19:02;;;;;;;19.13;12.33;;;5.50;99.90;;;;;;4992645;28;20183;-71
2022/04/22 05:21:27;;;;;;;18.23;11.60;;;6.50;99.90;;;;;;4992540;28;20228;-72
2022/04/22 05:23:54;;;;;;;18.23;12.47;;;7.70;99.90;;;;;;4992783;28;20532;-70
2022/04/22 05:26:24;;;;;;;14.20;11.13;;;8.70;99.90;;;;;;4992865;28;20206;-69
2022/04/22 05:28:49;;;;;;;15.23;11.50;;;9.80;99.90;;;;;;4992795;28;20821;-69
2022/04/22 05:33:59;;;;;;;13.90;11.10;;;11.20;99.90;;;;;;4992637;28;20234;-70
2022/04/22 05:36:25;;;;;;;14.63;11.37;;;11.30;99.90;;;;;;4986419;28;20423;-70
2022/04/22 05:38:52;;;;;;;25.93;11.83;;;11.70;99.90;;;;;;4964016;28;20316;-71
2022/04/22 05:41:18;;;;;;;17.27;11.33;;;12.00;99.90;;;;;;4968171;28;20292;-71
2022/04/22 05:43:44;;;;;;;16.93;12.20;;;12.50;99.90;;;;;;4971639;28;20827;-70
2022/04/22 05:46:10;;;;;;;13.03;11.30;;;13.10;99.90;;;;;;4972825;28;20442;-70
2022/04/22 05:48:35;;;;;;;15.20;12.73;;;13.40;99.90;;;;;;4971661;28;20187;-70
2022/04/22 05:51:01;;;;;;;18.17;13.13;;;13.60;99.90;;;;;;4971793;28;20212;-70
2022/04/22 05:53:26;;;;;;;18.23;13.43;;;13.90;99.90;;;;;;4972014;28;20287;-70
2022/04/22 05:55:52;;;;;;;16.90;12.50;;;14.40;99.90;;;;;;4972910;28;20656;-71
2022/04/22 05:58:17;;;;;;;17.83;13.50;;;14.80;99.90;;;;;;4972796;28;20833;-69
2022/04/22 06:00:43;;;;;;;16.10;13.33;;;15.10;99.90;;;;;;4972550;28;20246;-70
2022/04/22 06:03:08;;;;;;;21.33;12.93;;;15.30;99.90;;;;;;4972614;28;20183;-70
2022/04/22 06:05:34;;;;;;;16.63;13.97;;;15.30;99.90;;;;;;4972752;28;20552;-71
2022/04/22 06:10:51;;;;;;;16.93;14.80;;;15.60;99.90;;;;;;4972771;28;20238;-70
2022/04/22 06:13:16;;;;;;;22.90;15.90;;;15.90;99.90;;;;;;4972486;28;20434;-69
2022/04/22 06:15:42;;;;;;;20.23;14.37;;;15.90;99.90;;;;;;4972924;28;20415;-70
2022/04/22 06:18:07;;;;;;;21.20;16.60;;;16.40;99.90;;;;;;4972459;28;20540;-70
2022/04/22 06:20:33;;;;;;;24.07;18.13;;;16.50;99.90;;;;;;4973569;28;20180;-70
2022/04/22 06:22:59;;;;;;;22.97;17.40;;;16.30;99.90;;;;;;4974766;28;20216;-71
2022/04/22 06:25:24;;;;;;;22.63;17.27;;;16.30;99.90;;;;;;4973288;28;20188;-71
2022/04/22 06:27:50;;;;;;;24.93;19.07;;;16.00;99.90;;;;;;4972674;28;20191;-70
2022/04/22 06:30:21;;;;;;;28.80;20.57;;;15.80;99.90;;;;;;4972457;28;20227;-72
2022/04/22 06:32:49;;;;;;;24.20;17.70;;;15.60;99.90;;;;;;4972392;28;20215;-71
2022/04/22 06:35:16;;;;;;;26.30;18.13;;;15.60;99.90;;;;;;4972479;28;20525;-71
2022/04/22 06:37:44;;;;;;;23.53;18.23;;;15.60;99.90;;;;;;4972518;28;20415;-71
2022/04/22 06:45:47;;;;;;;25.43;19.30;;;15.10;99.90;;;;;;4972583;28;20477;-72
2022/04/22 06:48:16;;;;;;;25.77;19.43;;;15.00;99.90;;;;;;4972191;28;20479;-71
2022/04/22 06:50:44;;;;;;;25.43;19.07;;;14.70;99.90;;;;;;4972050;28;20415;-71
2022/04/22 06:53:10;;;;;;;23.57;18.73;;;14.60;99.90;;;;;;4972054;28;20454;-74
2022/04/22 06:55:38;;;;;;;25.47;19.90;;;14.80;99.90;;;;;;4972468;28;20799;-72
2022/04/22 06:58:11;;;;;;;29.23;19.60;;;15.10;99.90;;;;;;4972090;28;20415;-72
2022/04/22 07:00:38;;;;;;;33.00;20.73;;;15.20;99.90;;;;;;4966602;28;20860;-72
2022/04/22 07:03:04;;;;;;;24.00;19.40;;;15.30;99.90;;;;;;4955355;28;20874;-69
2022/04/22 07:05:31;;;;;;;25.97;19.07;;;15.50;99.90;;;;;;4965285;28;20420;-72
2022/04/22 07:07:56;;;;;;;25.27;18.73;;;15.60;99.90;;;;;;4970594;28;20434;-73
2022/04/22 07:10:22;;;;;;;22.00;18.60;;;15.80;99.90;;;;;;4970357;28;20423;-70
2022/04/22 07:12:48;;;;;;;26.80;18.77;;;15.90;99.90;;;;;;4957769;28;20275;-71
2022/04/22 07:15:14;;;;;;;27.83;18.17;;;15.90;99.90;;;;;;4959627;28;20747;-71
2022/04/22 07:17:41;;;;;;;26.33;19.30;;;15.90;99.90;;;;;;4966442;28;20275;-71
2022/04/22 07:20:12;;;;;;;22.83;18.00;;;16.00;99.90;;;;;;4970846;28;20176;-71
2022/04/22 07:22:38;;;;;;;26.93;18.20;;;15.80;99.90;;;;;;4971661;28;20490;-71
2022/04/22 07:25:06;;;;;;;25.00;19.30;;;15.90;99.90;;;;;;4971942;28;20498;-71
2022/04/22 07:27:34;;;;;;;22.40;19.07;;;16.20;99.90;;;;;;4972576;28;20895;-73
2022/04/22 07:30:00;;;;;;;21.70;17.30;;;16.10;99.90;;;;;;4972372;28;20419;-73
2022/04/22 07:32:29;;;;;;;27.07;19.33;;;16.30;99.90;;;;;;4971903;28;20824;-73
2022/04/22 07:34:55;;;;;;;23.00;18.80;;;16.30;99.90;;;;;;4970946;28;20970;-71
2022/04/22 07:37:22;;;;;;;26.43;18.73;;;16.30;99.90;;;;;;4974470;28;20426;-71
2022/04/22 07:39:48;;;;;;;24.63;18.30;;;16.40;99.90;;;;;;4975256;28;20419;-71
2022/04/22 07:42:20;;;;;;;24.70;19.93;;;16.60;99.90;;;;;;4975284;28;20928;-72
2022/04/22 07:47:33;;;;;;;28.23;18.80;;;17.00;99.90;;;;;;4975790;28;20510;-73
2022/04/22 07:49:59;;;;;;;24.60;19.30;;;16.80;99.90;;;;;;4975157;28;20448;-72
2022/04/22 07:52:24;;;;;;;21.10;17.77;;;17.00;99.90;;;;;;4974763;28;21016;-72
2022/04/22 07:54:50;;;;;;;24.97;18.47;;;16.90;99.90;;;;;;4975222;28;20477;-70
2022/04/22 07:57:15;;;;;;;22.20;18.37;;;17.00;99.90;;;;;;4974991;28;20584;-72
2022/04/22 07:59:42;;;;;;;22.00;17.37;;;17.40;99.90;;;;;;4975315;28;20723;-72
2022/04/22 08:02:08;;;;;;;22.23;18.00;;;17.40;99.90;;;;;;4974522;28;20227;-73
2022/04/22 08:04:34;;;;;;;26.57;18.77;;;17.70;99.90;;;;;;4975168;28;20466;-72
2022/04/22 08:07:00;;;;;;;21.80;17.73;;;17.80;99.90;;;;;;4975023;28;20180;-71
2022/04/22 08:09:26;;;;;;;21.83;17.90;;;18.10;99.90;;;;;;4966555;28;20727;-72
2022/04/22 08:11:52;;;;;;;25.50;18.70;;;18.10;99.90;;;;;;4974458;28;20451;-72
2022/04/22 08:14:17;;;;;;;22.47;18.43;;;17.90;99.90;;;;;;4974584;28;20264;-72
2022/04/22 08:16:43;;;;;;;22.87;18.47;;;17.80;99.90;;;;;;4974990;28;20179;-72
2022/04/22 08:19:08;;;;;;;24.40;17.43;;;17.70;99.90;;;;;;4974709;28;20188;-71
2022/04/22 08:21:34;;;;;;;19.23;17.13;;;17.40;99.90;;;;;;4974647;28;20214;-71
2022/04/22 08:24:03;;;;;;;20.70;17.33;;;17.40;99.90;;;;;;4974551;28;20199;-72
2022/04/22 08:26:31;;;;;;;24.33;18.60;;;17.10;99.90;;;;;;4974819;28;20184;-71
2022/04/22 08:28:57;;;;;;;20.87;17.07;;;17.10;99.90;;;;;;4974315;28;20423;-72
2022/04/22 08:31:23;;;;;;;21.90;18.40;;;17.60;99.90;;;;;;4973944;28;20467;-69
2022/04/22 08:33:49;;;;;;;23.40;17.97;;;18.00;99.90;;;;;;4974213;28;20964;-72
2022/04/22 08:36:15;;;;;;;21.57;15.80;;;18.40;99.90;;;;;;4974053;28;20629;-71
2022/04/22 08:38:41;;;;;;;20.30;16.33;;;18.80;99.90;;;;;;4974645;28;20180;-71
2022/04/22 08:41:09;;;;;;;20.07;17.30;;;19.40;99.90;;;;;;4972195;28;20450;-72
2022/04/22 08:43:36;;;;;;;22.33;16.37;;;19.20;99.90;;;;;;4963419;28;20207;-69
2022/04/22 08:46:02;;;;;;;20.07;16.00;;;19.40;99.90;;;;;;4973707;28;20431;-72
2022/04/22 08:51:27;;;;;;;20.63;17.77;;;20.20;99.90;;;;;;4931451;28;20223;-71
2022/04/22 08:53:55;;;;;;;19.67;16.60;;;20.50;99.90;;;;;;4955098;29;20985;-71
2022/04/22 08:56:21;;;;;;;18.23;16.00;;;20.60;99.90;;;;;;4954768;29;20215;-69
2022/04/22 08:58:47;;;;;;;23.27;16.13;;;20.80;99.90;;;;;;4954777;29;20452;-71
2022/04/22 09:01:13;;;;;;;17.67;15.00;;;20.50;99.90;;;;;;4968634;28;20203;-71
2022/04/22 09:03:38;;;;;;;16.20;14.50;;;19.80;99.90;;;;;;4972562;28;20567;-71
2022/04/22 09:06:04;;;;;;;19.70;16.10;;;19.70;99.90;;;;;;4991763;28;20448;-72
2022/04/22 09:08:30;;;;;;;16.87;15.03;;;19.60;99.90;;;;;;4976686;28;20211;-71
2022/04/22 09:11:01;;;;;;;20.67;16.97;;;19.40;99.90;;;;;;4973971;28;20583;-72
2022/04/22 09:13:31;;;;;;;19.63;16.00;;;20.10;99.90;;;;;;4974218;28;20467;-71
2022/04/22 09:15:58;;;;;;;17.60;15.20;;;20.50;99.90;;;;;;4969052;28;20415;-71
2022/04/22 09:18:26;;;;;;;21.03;16.60;;;21.00;99.90;;;;;;4973421;28;20776;-71
2022/04/22 09:20:54;;;;;;;15.97;14.27;;;21.10;99.90;;;;;;4972619;28;20557;-70
2022/04/22 09:23:35;;;;;;;15.37;13.80;;;20.90;99.90;;;;;;4973275;28;21003;-71
2022/04/22 09:26:03;;;;;;;17.73;15.83;;;21.30;99.90;;;;;;4972933;28;20423;-73
2022/04/22 09:28:29;;;;;;;17.20;15.30;;;21.60;99.90;;;;;;4971835;28;20498;-71
2022/04/22 09:31:00;;;;;;;19.70;15.10;;;21.80;99.90;;;;;;4972398;28;20866;-71
2022/04/22 09:33:33;;;;;;;20.37;15.40;;;22.10;99.90;;;;;;4972451;28;20778;-71
2022/04/22 09:44:25;;;;;;;15.93;13.90;;;22.10;99.90;;;;;;4973357;28;20836;-71
2022/04/22 09:47:11;;;;;;;14.87;13.47;;;21.90;99.90;;;;;;4973169;28;20424;-71
2022/04/22 09:49:43;;;;;;;18.40;14.00;;;21.20;99.90;;;;;;4973021;28;20450;-71
2022/04/22 09:52:08;;;;;;;16.90;14.40;;;21.40;99.90;;;;;;4972781;28;20443;-71
2022/04/22 09:54:34;;;;;;;17.63;15.07;;;21.60;99.90;;;;;;4972046;28;20574;-71
2022/04/22 09:57:03;;;;;;;14.77;13.23;;;21.50;99.90;;;;;;4973016;28;20172;-71
2022/04/22 09:59:30;;;;;;;15.60;14.00;;;21.60;99.90;;;;;;4972645;28;20183;-71
2022/04/22 10:01:56;;;;;;;19.27;14.60;;;21.40;99.90;;;;;;4972531;28;20466;-71
2022/04/22 10:04:23;;;;;;;16.20;13.80;;;21.50;99.90;;;;;;4972909;28;20478;-72
2022/04/22 10:06:50;;;;;;;16.60;14.90;;;20.90;99.90;;;;;;4970388;28;20190;-71
2022/04/22 10:09:16;;;;;;;14.40;13.00;;;21.70;99.90;;;;;;4971521;28;20427;-71
2022/04/22 10:11:44;;;;;;;13.43;11.93;;;22.00;99.90;;;;;;4970786;28;20454;-72
2022/04/22 10:14:10;;;;;;;17.03;13.90;;;22.50;99.90;;;;;;4968749;28;20483;-71
2022/04/22 10:16:37;;;;;;;15.83;14.23;;;22.10;99.50;;;;;;4970148;28;20502;-71
2022/04/22 10:19:03;;;;;;;15.43;12.57;;;22.10;99.90;;;;;;4971735;28;20416;-70
2022/04/22 10:21:29;;;;;;;15.77;13.90;;;22.10;99.90;;;;;;4972470;28;20671;-71
2022/04/22 10:23:58;;;;;;;14.43;12.60;;;22.30;99.90;;;;;;4964223;28;20445;-71
2022/04/22 10:26:25;;;;;;;15.57;13.13;;;22.70;99.90;;;;;;4971692;28;20900;-71
2022/04/22 10:28:52;;;;;;;15.87;14.27;;;22.30;99.30;;;;;;4970514;28;20434;-73
2022/04/22 10:31:18;;;;;;;15.67;14.07;;;21.60;99.90;;;;;;4971833;28;20465;-71
2022/04/22 10:33:45;;;;;;;20.07;15.90;;;21.20;99.90;;;;;;4972388;28;20565;-72
2022/04/22 10:36:19;;;;;;;19.10;15.17;;;21.00;99.90;;;;;;4972326;28;20423;-71
2022/04/22 10:38:49;;;;;;;16.13;13.13;;;21.20;99.90;;;;;;4972633;28;20888;-71
2022/04/22 10:41:22;;;;;;;15.30;13.70;;;21.10;99.90;;;;;;4972109;28;20450;-73
2022/04/22 10:49:39;;;;;;;15.93;14.27;;;19.80;99.90;;;;;;4972617;28;20423;-71
2022/04/22 10:52:13;;;;;;;17.67;14.30;;;19.40;99.90;;;;;;4972017;28;20449;-72
2022/04/22 10:54:54;;;;;;;18.83;14.37;;;19.50;99.90;;;;;;4972313;28;20469;-71
2022/04/22 10:57:31;;;;;;;18.87;14.30;;;19.80;99.90;;;;;;4972554;28;20425;-71
2022/04/22 11:00:27;;;;;;;18.83;14.40;;;20.20;99.90;;;;;;4972323;28;20951;-71
2022/04/22 11:03:04;;;;;;;16.23;14.00;;;20.60;99.90;;;;;;4972442;28;20435;-72
2022/04/22 11:05:32;;;;;;;17.63;15.30;;;20.60;99.90;;;;;;4972287;28;20423;-72
2022/04/22 11:07:58;;;;;;;16.37;14.63;;;20.30;99.90;;;;;;4971975;28;20431;-71
2022/04/22 11:10:29;;;;;;;16.13;13.73;;;20.40;99.90;;;;;;4972035;28;20429;-70
2022/04/22 11:12:59;;;;;;;17.43;14.73;;;20.50;99.90;;;;;;4975728;28;20439;-71
2022/04/22 11:15:43;;;;;;;17.10;13.73;;;20.80;99.90;;;;;;4975657;28;20467;-73
2022/04/22 11:18:13;;;;;;;16.57;14.87;;;20.70;99.90;;;;;;4975933;28;20434;-71
2022/04/22 11:20:43;;;;;;;16.10;14.50;;;20.80;99.90;;;;;;4975848;28;20416;-71
2022/04/22 11:23:13;;;;;;;16.50;14.20;;;20.60;99.90;;;;;;4975513;28;20427;-71
2022/04/22 11:25:40;;;;;;;17.40;14.80;;;20.40;99.90;;;;;;4975589;28;20423;-73
2022/04/22 11:28:07;;;;;;;15.10;12.77;;;20.20;99.90;;;;;;4962699;28;20460;-71
2022/04/22 11:30:33;;;;;;;16.43;14.70;;;20.30;99.90;;;;;;4967291;28;20792;-71
2022/04/22 11:33:11;;;;;;;16.87;14.97;;;20.40;99.90;;;;;;4975395;28;20463;-71
2022/04/22 11:35:37;;;;;;;18.90;14.70;;;20.50;99.90;;;;;;4975375;28;20187;-71
2022/04/22 11:38:07;;;;;;;15.93;14.27;;;20.60;99.90;;;;;;4975984;28;20399;-71
2022/04/22 11:40:40;;;;;;;23.43;16.13;;;20.70;99.90;;;;;;4975033;28;20418;-71
2022/04/22 11:43:10;;;;;;;20.30;14.03;;;20.40;99.90;;;;;;4975078;28;20403;-71
2022/04/22 11:45:41;;;;;;;14.90;11.13;;;20.30;99.90;;;;;;4975206;28;20415;-72
2022/04/22 11:48:12;;;;;;;19.10;13.73;;;20.50;99.90;;;;;;4975149;28;20461;-71
2022/04/22 11:50:42;;;;;;;14.63;13.13;;;20.50;99.90;;;;;;4974885;28;20825;-68
2022/04/22 11:53:34;;;;;;;13.00;11.70;;;20.20;99.90;;;;;;4974994;28;20491;-71
2022/04/22 11:56:04;;;;;;;14.73;12.00;;;20.10;99.90;;;;;;4973718;28;20534;-71
2022/04/22 11:58:32;;;;;;;12.10;11.00;;;20.30;99.90;;;;;;4975065;28;20411;-69
2022/04/22 12:06:27;;;;;;;13.00;11.70;;;20.30;99.90;;;;;;4974943;28;20483;-71
2022/04/22 12:09:01;;;;;;;13.23;11.47;;;19.80;99.90;;;;;;4974933;28;20470;-71
2022/04/22 12:11:27;;;;;;;13.47;12.00;;;19.60;99.90;;;;;;4974402;28;20259;-71
2022/04/22 12:13:54;;;;;;;14.00;12.60;;;19.60;99.90;;;;;;4974787;28;20843;-71
2022/04/22 12:16:23;;;;;;;17.23;11.23;;;19.60;99.90;;;;;;4974505;28;20412;-71
2022/04/22 12:18:50;;;;;;;14.33;12.80;;;19.80;99.90;;;;;;4974639;28;20407;-67
2022/04/22 12:21:18;;;;;;;14.10;12.43;;;19.80;99.90;;;;;;4974383;28;20441;-71
2022/04/22 12:23:45;;;;;;;14.57;12.53;;;19.90;99.90;;;;;;4974180;28;20422;-70
2022/04/22 12:26:15;;;;;;;13.70;11.00;;;19.80;99.90;;;;;;4974316;28;20420;-71
2022/04/22 12:29:00;;;;;;;14.37;12.93;;;19.60;99.90;;;;;;4974433;28;20806;-71
2022/04/22 12:31:29;;;;;;;12.07;10.87;;;19.40;99.90;;;;;;4973954;28;20486;-71
2022/04/22 12:34:06;;;;;;;13.50;11.50;;;19.40;99.90;;;;;;4974210;28;20470;-71
2022/04/22 12:36:50;;;;;;;14.37;12.67;;;19.40;99.90;;;;;;4974547;28;20485;-71
2022/04/22 12:39:32;;;;;;;14.00;12.23;;;19.40;99.90;;;;;;4974164;28;20862;-71
2022/04/22 12:41:58;;;;;;;14.17;12.70;;;19.40;99.90;;;;;;4973927;28;20830;-71
2022/04/22 12:44:23;;;;;;;13.40;12.00;;;19.20;99.90;;;;;;4974221;28;20422;-71
2022/04/22 12:52:25;;;;;;;15.27;13.67;;;19.30;99.90;;;;;;4973990;28;20450;-69
2022/04/22 12:55:04;;;;;;;15.00;13.20;;;19.20;99.90;;;;;;4973823;28;20463;-72
2022/04/22 12:57:30;;;;;;;14.53;13.03;;;18.80;99.90;;;;;;4973915;28;20466;-71
2022/04/22 12:59:57;;;;;;;13.63;12.27;;;18.90;99.90;;;;;;4973614;28;20415;-71
2022/04/22 13:02:32;;;;;;;17.23;12.27;;;19.00;99.90;;;;;;4973642;28;20199;-71
2022/04/22 13:04:58;;;;;;;12.03;10.73;;;19.10;99.90;;;;;;4973587;28;20490;-71
2022/04/22 13:07:25;;;;;;;12.43;11.00;;;19.30;99.90;;;;;;4973811;28;20427;-70
2022/04/22 13:09:50;;;;;;;12.83;11.53;;;19.60;99.90;;;;;;4983105;28;20187;-71
2022/04/22 13:12:17;;;;;;;18.10;11.80;;;19.40;99.90;;;;;;4992595;28;20490;-72
2022/04/22 13:14:43;;;;;;;18.87;12.37;;;19.30;99.90;;;;;;4992870;28;20211;-70
2022/04/22 13:17:19;;;;;;;15.20;12.47;;;19.30;99.90;;;;;;4992673;28;20410;-72
2022/04/22 13:19:45;;;;;;;16.67;12.07;;;19.20;99.90;;;;;;4991387;28;20422;-69
2022/04/22 13:22:10;;;;;;;13.90;12.17;;;19.20;99.90;;;;;;4992295;28;20426;-71
2022/04/22 13:24:36;;;;;;;12.37;11.10;;;19.20;99.90;;;;;;4992981;28;20171;-70
2022/04/22 13:27:02;;;;;;;16.83;10.07;;;19.40;99.90;;;;;;4992668;28;20180;-70
2022/04/22 13:29:27;;;;;;;12.20;11.00;;;19.60;99.90;;;;;;4992649;28;20182;-70
2022/04/22 13:31:53;;;;;;;12.73;11.43;;;19.70;99.90;;;;;;4991719;28;20458;-71
2022/04/22 13:34:18;;;;;;;13.30;11.00;;;19.70;99.90;;;;;;4991340;28;20292;-70
2022/04/22 13:36:43;;;;;;;11.00;9.83;;;19.60;99.90;;;;;;4992421;28;20172;-71
2022/04/22 13:39:09;;;;;;;13.80;11.27;;;19.60;99.90;;;;;;4992212;28;20188;-70
2022/04/22 13:41:34;;;;;;;14.60;12.43;;;19.60;99.90;;;;;;4992076;28;20191;-70
2022/04/22 13:44:00;;;;;;;15.00;13.00;;;19.60;99.90;;;;;;4992257;28;20632;-70
2022/04/22 13:54:38;;;;;;;12.10;10.87;;;19.60;99.90;;;;;;4992139;28;20515;-70
2022/04/22 13:57:03;;;;;;;11.97;10.77;;;19.60;99.90;;;;;;4992268;28;20410;-71
2022/04/22 13:59:29;;;;;;;15.63;14.00;;;19.40;99.90;;;;;;4992214;28;20767;-71
2022/04/22 14:01:54;;;;;;;12.50;11.30;;;19.40;99.90;;;;;;4991991;28;20206;-71
2022/04/22 14:04:20;;;;;;;13.87;12.53;;;19.50;99.90;;;;;;4993205;28;20546;-70
2022/04/22 14:06:45;;;;;;;17.60;12.80;;;19.60;99.90;;;;;;4992529;28;20179;-70
2022/04/22 14:09:11;;;;;;;20.97;12.80;;;19.50;99.90;;;;;;4991885;28;20194;-71
2022/04/22 14:11:37;;;;;;;13.57;9.20;;;19.50;99.90;;;;;;4991781;28;20617;-67
2022/04/22 14:14:03;;;;;;;14.30;11.83;;;19.60;99.90;;;;;;4990665;28;20207;-68
2022/04/22 14:16:30;;;;;;;12.37;11.10;;;19.60;99.90;;;;;;4991999;28;20203;-69
2022/04/22 14:18:56;;;;;;;14.03;11.63;;;19.50;99.90;;;;;;4991955;28;20498;-70
2022/04/22 14:21:22;;;;;;;15.13;10.53;;;19.40;99.90;;;;;;4992542;28;21126;-68
2022/04/22 14:23:47;;;;;;;11.93;10.57;;;19.50;99.90;;;;;;4981174;28;20425;-69
2022/04/22 14:26:13;;;;;;;12.30;10.90;;;19.40;99.90;;;;;;4971251;28;20224;-68
2022/04/22 14:28:39;;;;;;;12.27;11.13;;;19.50;99.90;;;;;;4969147;28;20712;-70
2022/04/22 14:31:05;;;;;;;12.57;11.20;;;19.50;99.90;;;;;;4969442;28;20585;-70
2022/04/22 14:33:31;;;;;;;11.97;10.80;;;19.50;99.90;;;;;;4969948;28;20184;-71
2022/04/22 14:35:56;;;;;;;11.23;10.13;;;19.40;99.90;;;;;;4970782;28;20412;-70
2022/04/22 14:38:22;;;;;;;14.07;11.80;;;19.60;99.90;;;;;;4969505;28;20179;-70
2022/04/22 14:40:48;;;;;;;12.13;9.60;;;19.60;99.90;;;;;;4970425;28;20183;-69
2022/04/22 14:43:14;;;;;;;12.63;9.97;;;19.70;99.90;;;;;;4969691;28;20419;-70
2022/04/22 14:45:39;;;;;;;11.80;9.83;;;19.70;99.90;;;;;;4971266;28;20187;-70
2022/04/22 14:48:05;;;;;;;12.20;11.07;;;19.70;99.90;;;;;;4972964;28;20241;-69
2022/04/22 14:50:33;;;;;;;14.60;10.70;;;19.70;99.90;;;;;;4973037;28;20184;-70
2022/04/22 14:52:59;;;;;;;13.20;10.70;;;19.70;99.90;;;;;;4972153;28;20208;-70
2022/04/22 14:55:24;;;;;;;12.70;10.93;;;19.70;99.90;;;;;;4973227;28;21048;-70
2022/04/22 14:57:50;;;;;;;9.87;8.97;;;19.70;99.90;;;;;;4973136;28;20180;-70
2022/04/22 15:00:16;;;;;;;8.90;8.00;;;19.70;99.90;;;;;;4973023;28;20176;-67
2022/04/22 15:02:42;;;;;;;10.40;9.50;;;19.60;99.90;;;;;;4973076;28;20629;-69
2022/04/22 15:05:09;;;;;;;10.60;9.60;;;19.60;99.90;;;;;;4972618;28;20422;-69
2022/04/22 15:07:35;;;;;;;12.17;10.07;;;19.50;99.50;;;;;;4972393;28;20767;-70
2022/04/22 15:10:03;;;;;;;11.50;10.30;;;19.50;99.60;;;;;;4972722;28;20803;-69
2022/04/22 15:12:29;;;;;;;9.80;8.90;;;19.40;99.50;;;;;;4972352;28;20443;-69
2022/04/22 15:14:55;;;;;;;14.07;9.40;;;19.40;99.80;;;;;;4971660;28;20466;-69